| time (UTC) | temp F | wind direction | speed knots | gust knots | rain 1hr in | rain 24hr in | rain mn in | humidity % | barometer mb |
| 20260906164018 | 74 | 90 | 3.5 | 7.0 | 0.00 | 0.00 | 0.00 | 83 | 1019.4 |
| 20260906163019 | 73 | 113 | 3.5 | 8.7 | 0.00 | 0.00 | 0.00 | 83 | 1019.4 |
| 20260906162018 | 73 | 113 | 4.3 | 7.0 | 0.00 | 0.00 | 0.00 | 83 | 1019.3 |
| 20260906161018 | 73 | 90 | 3.5 | 7.8 | 0.00 | 0.00 | 0.00 | 84 | 1019.3 |
| 20260906160018 | 73 | 135 | 3.5 | 7.0 | 0.00 | 0.00 | 0.00 | 85 | 1019.4 |
| 20260906155018 | 72 | 90 | 2.6 | 5.2 | 0.00 | 0.00 | 0.00 | 86 | 1019.4 |
| 20260906154018 | 72 | 90 | 1.7 | 3.5 | 0.00 | 0.00 | 0.00 | 86 | 1019.4 |
| 20260906153018 | 72 | 90 | 2.6 | 7.0 | 0.00 | 0.00 | 0.00 | 87 | 1019.4 |
| 20260906152018 | 72 | 113 | 1.7 | 3.5 | 0.00 | 0.00 | 0.00 | 87 | 1019.5 |
| 20260906151018 | 71 | 68 | 1.7 | 3.5 | 0.00 | 0.00 | 0.00 | 88 | 1019.4 |
| 20260906150018 | 71 | 90 | 1.7 | 5.2 | 0.00 | 0.00 | 0.00 | 88 | 1019.3 |
| 20260906145018 | 71 | 90 | 1.7 | 6.1 | 0.00 | 0.00 | 0.00 | 89 | 1019.3 |
| 20260906144018 | 70 | 68 | 2.6 | 5.2 | 0.00 | 0.00 | 0.00 | 89 | 1019.2 |
| 20260906143018 | 70 | 90 | 1.7 | 5.2 | 0.00 | 0.00 | 0.00 | 89 | 1019.1 |
| 20260906142018 | 70 | 90 | 2.6 | 6.1 | 0.00 | 0.00 | 0.00 | 89 | 1019.1 |
| 20260906141018 | 70 | 45 | 1.7 | 5.2 | 0.00 | 0.00 | 0.00 | 89 | 1019.1 |
| 20260906140018 | 69 | 90 | 2.6 | 7.8 | 0.00 | 0.00 | 0.00 | 90 | 1019.0 |
| 20260906135018 | 69 | 90 | 4.3 | 11.3 | 0.00 | 0.00 | 0.00 | 90 | 1019.0 |
| 20260906134018 | 69 | 45 | 3.5 | 7.8 | 0.00 | 0.00 | 0.00 | 91 | 1018.8 |
| 20260906133018 | 69 | 68 | 2.6 | 7.8 | 0.00 | 0.00 | 0.00 | 91 | 1018.7 |
| 20260906132018 | 69 | 45 | 3.5 | 7.0 | 0.00 | 0.00 | 0.00 | 91 | 1018.6 |
| 20260906131018 | 69 | 45 | 2.6 | 5.2 | 0.00 | 0.00 | 0.00 | 91 | 1018.5 |
| 20260906130018 | 68 | 68 | 2.6 | 6.1 | 0.00 | 0.00 | 0.00 | 91 | 1018.5 |
| 20260906125018 | 68 | 90 | 2.6 | 7.0 | 0.00 | 0.00 | 0.00 | 91 | 1018.4 |
| 20260906124018 | 68 | 68 | 0.9 | 6.1 | 0.00 | 0.00 | 0.00 | 91 | 1018.4 |
| 20260906123018 | 68 | 68 | 1.7 | 4.3 | 0.00 | 0.00 | 0.00 | 91 | 1018.5 |
| 20260906122018 | 68 | 90 | 2.6 | 5.2 | 0.00 | 0.00 | 0.00 | 91 | 1018.4 |
| 20260906121018 | 68 | 68 | 0.9 | 3.5 | 0.00 | 0.00 | 0.00 | 91 | 1018.3 |
| 20260906120018 | 68 | 90 | 2.6 | 7.0 | 0.00 | 0.00 | 0.00 | 91 | 1018.2 |
| 20260906115018 | 68 | 90 | 1.7 | 7.0 | 0.00 | 0.00 | 0.00 | 91 | 1018.3 |
| 20260906114017 | 68 | 68 | 1.7 | 7.0 | 0.00 | 0.00 | 0.00 | 91 | 1018.1 |
| 20260906113018 | 68 | 113 | 1.7 | 5.2 | 0.00 | 0.00 | 0.00 | 91 | 1018.3 |
| 20260906112018 | 68 | 90 | 1.7 | 4.3 | 0.00 | 0.00 | 0.00 | 91 | 1018.1 |
| 20260906111017 | 68 | 90 | 1.7 | 3.5 | 0.00 | 0.00 | 0.00 | 91 | 1018.1 |
| 20260906110018 | 68 | 90 | 1.7 | 3.5 | 0.00 | 0.00 | 0.00 | 91 | 1018.1 |
| 20260906105018 | 68 | 90 | 0.9 | 3.5 | 0.00 | 0.00 | 0.00 | 91 | 1017.9 |
| 20260906104018 | 68 | 90 | 0.9 | 2.6 | 0.00 | 0.00 | 0.00 | 90 | 1018.0 |
| 20260906103017 | 68 | 90 | 1.7 | 3.5 | 0.00 | 0.00 | 0.00 | 90 | 1017.9 |
| 20260906102018 | 68 | 90 | 0.9 | 3.5 | 0.00 | 0.00 | 0.00 | 90 | 1017.7 |
| 20260906101017 | 68 | 68 | 0.9 | 3.5 | 0.00 | 0.00 | 0.00 | 90 | 1017.4 |
| 20260906100018 | 69 | 113 | 0.9 | 6.1 | 0.00 | 0.00 | 0.00 | 90 | 1017.2 |
| 20260906095018 | 69 | 68 | 1.7 | 4.3 | 0.00 | 0.00 | 0.00 | 90 | 1017.1 |
| 20260906094017 | 69 | 90 | 0.9 | 6.1 | 0.00 | 0.00 | 0.00 | 90 | 1016.9 |
| 20260906093017 | 69 | 90 | 1.7 | 4.3 | 0.00 | 0.00 | 0.00 | 90 | 1016.7 |
| 20260906092019 | 70 | 90 | 1.7 | 6.1 | 0.00 | 0.00 | 0.00 | 89 | 1016.8 |
| 20260906091019 | 70 | 68 | 0.9 | 4.3 | 0.00 | 0.00 | 0.00 | 89 | 1017.0 |
| 20260906090019 | 70 | 90 | 0.9 | 2.6 | 0.00 | 0.00 | 0.00 | 89 | 1016.8 |
| 20260906085019 | 70 | 90 | 1.7 | 3.5 | 0.00 | 0.00 | 0.00 | 89 | 1016.7 |
| 20260906084019 | 70 | 45 | 1.7 | 5.2 | 0.00 | 0.00 | 0.00 | 89 | 1016.6 |
| 20260906083019 | 70 | 90 | 1.7 | 4.3 | 0.00 | 0.00 | 0.00 | 89 | 1016.9 |
| 20260906082019 | 71 | 90 | 1.7 | 4.3 | 0.00 | 0.00 | 0.00 | 89 | 1016.9 |
| 20260906081019 | 71 | 90 | 2.6 | 7.0 | 0.00 | 0.00 | 0.00 | 88 | 1016.9 |
| 20260906080019 | 71 | 45 | 0.9 | 4.3 | 0.00 | 0.00 | 0.00 | 88 | 1017.0 |
| 20260906075019 | 71 | 90 | 1.7 | 7.0 | 0.00 | 0.00 | 0.00 | 88 | 1016.8 |
| 20260906074019 | 72 | 23 | 2.6 | 7.8 | 0.00 | 0.00 | 0.00 | 88 | 1017.1 |
| 20260906073019 | 72 | 68 | 2.6 | 5.2 | 0.00 | 0.00 | 0.00 | 88 | 1017.1 |
| 20260906072019 | 72 | 45 | 2.6 | 6.1 | 0.00 | 0.00 | 0.00 | 88 | 1017.3 |
| 20260906071019 | 72 | 68 | 1.7 | 5.2 | 0.00 | 0.00 | 0.00 | 88 | 1017.4 |
| 20260906070019 | 72 | 45 | 1.7 | 5.2 | 0.00 | 0.00 | 0.00 | 88 | 1017.5 |
| 20260906065020 | 72 | 23 | 2.6 | 6.1 | 0.00 | 0.00 | 0.00 | 88 | 1017.6 |
| 20260906064019 | 72 | 45 | 1.7 | 5.2 | 0.00 | 0.00 | 0.00 | 88 | 1017.4 |
| 20260906063019 | 72 | 45 | 0.9 | 3.5 | 0.00 | 0.00 | 0.00 | 87 | 1017.4 |
| 20260906062019 | 72 | 23 | 1.7 | 5.2 | 0.00 | 0.00 | 0.00 | 88 | 1017.4 |
| 20260906061019 | 72 | 23 | 2.6 | 5.2 | 0.00 | 0.00 | 0.00 | 88 | 1017.5 |
| 20260906060019 | 72 | 68 | 0.9 | 3.5 | 0.00 | 0.00 | 0.00 | 88 | 1017.2 |
| 20260906055019 | 72 | 45 | 2.6 | 7.8 | 0.00 | 0.00 | 0.00 | 88 | 1017.1 |
| 20260906054019 | 72 | 23 | 2.6 | 4.3 | 0.00 | 0.00 | 0.00 | 87 | 1017.2 |
| 20260906053019 | 73 | 0 | 0.9 | 3.5 | 0.00 | 0.00 | 0.00 | 87 | 1017.4 |
| 20260906052019 | 73 | 0 | 1.7 | 5.2 | 0.00 | 0.00 | 0.00 | 87 | 1017.3 |
| 20260906051019 | 73 | 45 | 1.7 | 4.3 | 0.00 | 0.00 | 0.00 | 87 | 1016.9 |
| 20260906050019 | 73 | 0 | 1.7 | 5.2 | 0.00 | 0.00 | 0.00 | 87 | 1016.9 |
| 20260906045019 | 73 | 338 | 1.7 | 5.2 | 0.00 | 0.00 | 0.00 | 86 | 1017.0 |
| 20260906044017 | 73 | 23 | 2.6 | 5.2 | 0.00 | 0.00 | 0.00 | 86 | 1017.1 |
| 20260906043019 | 74 | 338 | 2.6 | 4.3 | 0.00 | 0.00 | 0.00 | 86 | 1017.2 |
| 20260906042019 | 74 | 338 | 1.7 | 5.2 | 0.00 | 0.00 | 0.00 | 86 | 1017.1 |
| 20260906041019 | 74 | 338 | 2.6 | 4.3 | 0.00 | 0.00 | 0.00 | 86 | 1017.2 |
| 20260906040019 | 74 | 338 | 2.6 | 3.5 | 0.00 | 0.00 | 0.00 | 86 | 1016.8 |
| 20260906035019 | 74 | 23 | 1.7 | 3.5 | 0.00 | 0.00 | 0.00 | 86 | 1016.9 |
| 20260906034019 | 74 | 23 | 1.7 | 3.5 | 0.00 | 0.00 | 0.00 | 86 | 1016.7 |
| 20260906033019 | 74 | 23 | 0.9 | 3.5 | 0.00 | 0.00 | 0.00 | 85 | 1016.8 |
| 20260906032019 | 75 | 0 | 1.7 | 3.5 | 0.00 | 0.00 | 0.00 | 85 | 1016.8 |
| 20260906031019 | 75 | 45 | 1.7 | 2.6 | 0.00 | 0.00 | 0.00 | 85 | 1016.6 |
| 20260906030019 | 75 | 45 | 0.9 | 2.6 | 0.00 | 0.00 | 0.00 | 85 | 1016.6 |
| 20260906025019 | 75 | 45 | 0.9 | 2.6 | 0.00 | 0.00 | 0.00 | 84 | 1016.5 |
| 20260906024019 | 75 | 45 | 1.7 | 2.6 | 0.00 | 0.00 | 0.00 | 84 | 1016.1 |
| 20260906023019 | 76 | 45 | 0.9 | 2.6 | 0.00 | 0.00 | 0.00 | 83 | 1016.1 |
| 20260906022019 | 76 | 45 | 0.9 | 2.6 | 0.00 | 0.00 | 0.00 | 83 | 1016.0 |
| 20260906021019 | 76 | 45 | 0.9 | 3.5 | 0.00 | 0.00 | 0.00 | 82 | 1015.5 |
| 20260906020019 | 76 | 45 | 0.9 | 2.6 | 0.00 | 0.00 | 0.00 | 82 | 1015.4 |
| 20260906015019 | 77 | 68 | 0.9 | 2.6 | 0.00 | 0.00 | 0.00 | 82 | 1015.2 |
| 20260906014019 | 77 | 45 | 0.9 | 4.3 | 0.00 | 0.00 | 0.00 | 82 | 1015.1 |
| 20260906013019 | 77 | 68 | 1.7 | 4.3 | 0.00 | 0.00 | 0.00 | 82 | 1014.9 |
| 20260906012019 | 77 | 68 | 1.7 | 4.3 | 0.00 | 0.00 | 0.00 | 81 | 1014.8 |
| 20260906011019 | 78 | 68 | 0.9 | 6.1 | 0.00 | 0.00 | 0.00 | 81 | 1014.9 |
| 20260906010019 | 78 | 45 | 1.7 | 8.7 | 0.00 | 0.00 | 0.00 | 81 | 1014.7 |
| 20260906005019 | 78 | 45 | 1.7 | 7.0 | 0.00 | 0.00 | 0.00 | 80 | 1014.8 |
| 20260906004019 | 79 | 45 | 0.9 | 3.5 | 0.00 | 0.00 | 0.00 | 80 | 1014.7 |
| 20260906003019 | 79 | 45 | 1.7 | 4.3 | 0.00 | 0.00 | 0.00 | 79 | 1014.6 |
| 20260906002019 | 79 | 45 | 0.9 | 4.3 | 0.00 | 0.00 | 0.00 | 78 | 1014.6 |
| 20260906001019 | 80 | 45 | 0.9 | 2.6 | 0.00 | 0.00 | 0.00 | 78 | 1014.6 |
| 20260906000019 | 80 | 45 | 1.7 | 6.1 | 0.00 | 0.00 | 0.00 | 77 | 1014.6 |
| 20260905235019 | 81 | 45 | 1.7 | 5.2 | 0.00 | 0.00 | 0.00 | 76 | 1014.6 |
| 20260905234019 | 81 | 90 | 1.7 | 4.3 | 0.00 | 0.00 | 0.00 | 76 | 1014.6 |
| 20260905233019 | 81 | 45 | 2.6 | 7.8 | 0.00 | 0.00 | 0.00 | 76 | 1014.4 |
| 20260905232019 | 82 | 45 | 3.5 | 9.6 | 0.00 | 0.00 | 0.00 | 75 | 1014.3 |
| 20260905231018 | 82 | 23 | 2.6 | 9.6 | 0.00 | 0.00 | 0.00 | 75 | 1014.3 |
| 20260905230019 | 82 | 45 | 3.5 | 12.2 | 0.00 | 0.00 | 0.00 | 74 | 1014.4 |
| 20260905225019 | 83 | 23 | 5.2 | 10.4 | 0.00 | 0.00 | 0.00 | 74 | 1014.2 |
| 20260905224019 | 83 | 45 | 3.5 | 10.4 | 0.00 | 0.00 | 0.00 | 74 | 1014.2 |
| 20260905223019 | 83 | 23 | 4.3 | 8.7 | 0.00 | 0.00 | 0.00 | 74 | 1014.1 |
| 20260905222019 | 83 | 45 | 2.6 | 7.0 | 0.00 | 0.00 | 0.00 | 75 | 1014.3 |
| 20260905221019 | 83 | 23 | 3.5 | 8.7 | 0.00 | 0.00 | 0.00 | 74 | 1014.3 |
| 20260905220018 | 83 | 0 | 3.5 | 9.6 | 0.00 | 0.00 | 0.00 | 75 | 1014.3 |
| 20260905215018 | 83 | 45 | 4.3 | 9.6 | 0.00 | 0.00 | 0.00 | 74 | 1014.2 |
| 20260905214019 | 84 | 0 | 5.2 | 9.6 | 0.00 | 0.00 | 0.00 | 75 | 1014.3 |
| 20260905213019 | 84 | 23 | 5.2 | 11.3 | 0.00 | 0.00 | 0.00 | 75 | 1014.4 |
| 20260905212018 | 85 | 0 | 5.2 | 9.6 | 0.00 | 0.00 | 0.00 | 75 | 1014.4 |
| 20260905211019 | 86 | 0 | 6.1 | 12.2 | 0.00 | 0.00 | 0.00 | 74 | 1014.5 |
| 20260905210019 | 86 | 23 | 4.3 | 8.7 | 0.00 | 0.00 | 0.00 | 74 | 1014.5 |
| 20260905205018 | 86 | 0 | 5.2 | 9.6 | 0.00 | 0.00 | 0.00 | 74 | 1014.6 |
| 20260905204018 | 87 | 0 | 4.3 | 8.7 | 0.00 | 0.00 | 0.00 | 74 | 1014.6 |
| 20260905203019 | 87 | 0 | 4.3 | 8.7 | 0.00 | 0.00 | 0.00 | 73 | 1014.6 |
| 20260905202019 | 87 | 0 | 2.6 | 5.2 | 0.00 | 0.00 | 0.00 | 73 | 1014.6 |
| 20260905201018 | 87 | 0 | 2.6 | 7.0 | 0.00 | 0.00 | 0.00 | 73 | 1014.3 |
| 20260905200018 | 87 | 0 | 4.3 | 9.6 | 0.00 | 0.00 | 0.00 | 74 | 1014.4 |
| 20260905195018 | 87 | 0 | 3.5 | 8.7 | 0.00 | 0.00 | 0.00 | 75 | 1014.8 |
| 20260905194019 | 87 | 338 | 3.5 | 7.0 | 0.00 | 0.00 | 0.00 | 74 | 1015.0 |
| 20260905193019 | 87 | 45 | 3.5 | 7.8 | 0.00 | 0.00 | 0.00 | 75 | 1015.1 |
| 20260905192019 | 87 | 0 | 3.5 | 7.8 | 0.00 | 0.00 | 0.00 | 75 | 1015.3 |
| 20260905191018 | 87 | 338 | 2.6 | 7.0 | 0.00 | 0.00 | 0.00 | 74 | 1015.5 |
| 20260905190018 | 87 | 315 | 1.7 | 4.3 | 0.00 | 0.00 | 0.00 | 73 | 1015.2 |
| 20260905185018 | 88 | 45 | 1.7 | 5.2 | 0.00 | 0.00 | 0.00 | 75 | 1015.3 |
| 20260905184018 | 88 | 338 | 2.6 | 7.0 | 0.00 | 0.00 | 0.00 | 75 | 1015.3 |
| 20260905183019 | 87 | 45 | 2.6 | 5.2 | 0.00 | 0.00 | 0.00 | 76 | 1015.3 |
| 20260905182018 | 87 | 45 | 3.5 | 7.8 | 0.00 | 0.00 | 0.00 | 74 | 1015.4 |
| 20260905181018 | 88 | 23 | 2.6 | 8.7 | 0.00 | 0.00 | 0.00 | 75 | 1015.3 |
| 20260905180018 | 88 | 23 | 3.5 | 8.7 | 0.00 | 0.00 | 0.00 | 73 | 1015.2 |
| 20260905175018 | 88 | 45 | 3.5 | 8.7 | 0.00 | 0.00 | 0.00 | 74 | 1015.2 |
| 20260905174018 | 89 | 23 | 4.3 | 7.8 | 0.00 | 0.00 | 0.00 | 72 | 1015.2 |
| 20260905173018 | 89 | 23 | 2.6 | 7.0 | 0.00 | 0.00 | 0.00 | 74 | 1015.2 |
| 20260905172018 | 89 | 23 | 3.5 | 7.8 | 0.00 | 0.00 | 0.00 | 75 | 1015.2 |
| 20260905171018 | 88 | 23 | 3.5 | 8.7 | 0.00 | 0.00 | 0.00 | 74 | 1015.3 |
| 20260905170018 | 87 | 23 | 3.5 | 7.8 | 0.00 | 0.00 | 0.00 | 74 | 1015.4 |
| 20260905165018 | 87 | 23 | 3.5 | 8.7 | 0.00 | 0.00 | 0.00 | 76 | 1015.5 |